Time;durP1;ratioP1;P1;durP2;ratioP2;P2;SDS_P1;SDS_P2;PMS_P1;PMS_P2;Temp;Humidity;BMP_temperature;BMP_pressure;BME280_temperature;BME280_humidity;BME280_pressure;Samples;Min_cycle;Max_cycle;Signal;HPM_P1;HPM_P2
2021/12/28 00:02:25;;;;;;;29.53;16.23;;;;;;;-1.66;82.49;99532.91;5011605;28;20049;-75
2021/12/28 00:04:50;;;;;;;30.70;16.27;;;;;;;-1.63;83.00;99530.41;5011245;28;20061;-74
2021/12/28 00:07:15;;;;;;;29.83;14.63;;;;;;;-1.59;82.76;99527.09;5011077;28;20488;-74
2021/12/28 00:09:41;;;;;;;27.40;14.87;;;;;;;-1.57;82.83;99530.59;5011252;28;20037;-74
2021/12/28 00:12:06;;;;;;;27.03;15.63;;;;;;;-1.56;81.75;99529.75;5011459;28;20073;-73
2021/12/28 00:14:36;;;;;;;28.23;15.20;;;;;;;-1.57;81.97;99538.34;5009863;28;20038;-74
2021/12/28 00:19:47;;;;;;;26.43;15.43;;;;;;;-1.66;82.10;99517.41;5007575;28;20073;-75
2021/12/28 00:22:12;;;;;;;28.97;15.97;;;;;;;-1.77;83.58;99530.91;5011378;28;20089;-74
2021/12/28 00:24:37;;;;;;;30.03;17.83;;;;;;;-1.75;83.52;99528.38;5011020;28;20083;-75
2021/12/28 00:27:04;;;;;;;32.07;16.93;;;;;;;-1.67;82.89;99518.25;5010951;28;20084;-74
2021/12/28 00:29:29;;;;;;;29.43;15.50;;;;;;;-1.63;83.02;99517.47;5011224;28;20037;-74
2021/12/28 00:31:55;;;;;;;30.53;16.77;;;;;;;-1.58;82.62;99513.28;5011032;28;20038;-73
2021/12/28 00:34:22;;;;;;;28.87;16.33;;;;;;;-1.55;82.67;99515.94;5011022;28;20044;-74
2021/12/28 00:36:47;;;;;;;29.80;16.63;;;;;;;-1.52;82.79;99507.41;5011232;28;20087;-74
2021/12/28 00:39:13;;;;;;;30.57;17.27;;;;;;;-1.52;82.62;99510.84;5011154;28;20038;-75
2021/12/28 00:41:39;;;;;;;30.17;16.13;;;;;;;-1.51;83.05;99517.81;5011090;28;20041;-75
2021/12/28 00:44:04;;;;;;;30.30;15.87;;;;;;;-1.50;82.62;99516.94;5011194;28;20038;-75
2021/12/28 00:46:30;;;;;;;26.47;17.20;;;;;;;-1.48;82.54;99515.28;5010879;28;20034;-74
2021/12/28 00:48:55;;;;;;;34.03;16.93;;;;;;;-1.46;82.87;99517.94;5007106;28;20121;-74
2021/12/28 00:51:20;;;;;;;29.30;16.73;;;;;;;-1.46;82.01;99525.69;5011178;28;20041;-75
2021/12/28 00:53:46;;;;;;;31.97;17.70;;;;;;;-1.50;82.44;99518.66;5011060;28;20148;-74
2021/12/28 00:56:11;;;;;;;30.17;17.30;;;;;;;-1.50;82.48;99521.25;5010749;28;20376;-74
2021/12/28 00:58:37;;;;;;;35.57;18.33;;;;;;;-1.49;82.00;99518.72;5011038;28;20133;-73
2021/12/28 01:01:04;;;;;;;32.83;17.63;;;;;;;-1.43;82.73;99525.75;5011036;28;20044;-74
2021/12/28 01:03:34;;;;;;;33.10;18.00;;;;;;;-1.36;82.77;99514.75;5011008;28;20046;-74
2021/12/28 01:05:59;;;;;;;31.30;17.23;;;;;;;-1.25;82.61;99515.00;5010674;28;20449;-74
2021/12/28 01:08:27;;;;;;;31.37;16.77;;;;;;;-1.14;82.32;99513.53;5010436;28;20068;-74
2021/12/28 01:10:53;;;;;;;35.67;19.40;;;;;;;-1.00;82.70;99517.31;5010955;28;20076;-74
2021/12/28 01:13:21;;;;;;;32.47;18.30;;;;;;;-0.86;82.68;99509.00;5010851;28;20034;-74
2021/12/28 01:15:46;;;;;;;32.40;17.80;;;;;;;-0.81;82.52;99516.06;5009398;28;20026;-74
2021/12/28 01:18:12;;;;;;;35.87;19.90;;;;;;;-0.70;82.38;99509.41;5010864;28;20038;-74
2021/12/28 01:20:39;;;;;;;32.87;17.70;;;;;;;-0.58;82.49;99513.97;5012527;28;20045;-74
2021/12/28 01:23:04;;;;;;;31.27;17.23;;;;;;;-0.45;82.40;99507.34;5014274;28;20489;-74
2021/12/28 01:25:30;;;;;;;33.67;17.47;;;;;;;-0.39;82.33;99504.00;5013969;28;20040;-75
2021/12/28 01:27:56;;;;;;;35.13;19.23;;;;;;;-0.32;82.36;99498.97;5014257;28;20401;-74
2021/12/28 01:30:23;;;;;;;36.97;19.03;;;;;;;-0.18;82.28;99495.81;5014126;28;20034;-75
2021/12/28 01:32:49;;;;;;;31.67;18.43;;;;;;;-0.10;82.97;99500.31;5014150;28;20037;-75
2021/12/28 01:35:16;;;;;;;30.27;18.57;;;;;;;0.03;82.45;99493.66;5013897;28;20041;-75
2021/12/28 01:37:43;;;;;;;33.07;18.60;;;;;;;0.18;82.54;99496.56;5013986;28;20038;-74
2021/12/28 01:40:12;;;;;;;39.67;20.00;;;;;;;0.28;82.01;99492.38;5013992;28;20037;-74
2021/12/28 01:43:17;;;;;;;36.43;18.33;;;;;;;0.31;80.78;99488.97;5013825;28;20042;-75
2021/12/28 01:45:52;;;;;;;33.03;18.93;;;;;;;0.35;80.96;99483.00;5011230;28;20168;-75
2021/12/28 01:48:40;;;;;;;32.53;19.07;;;;;;;0.41;81.05;99483.09;5012667;28;20050;-75
2021/12/28 01:51:08;;;;;;;37.83;19.50;;;;;;;0.54;81.25;99479.88;5012676;28;20045;-74
2021/12/28 01:53:34;;;;;;;33.93;18.57;;;;;;;0.80;81.56;99476.84;5013782;28;20114;-75
2021/12/28 01:56:06;;;;;;;34.07;19.83;;;;;;;1.06;81.08;99482.44;5013578;28;20025;-74
2021/12/28 01:58:32;;;;;;;36.83;19.50;;;;;;;1.26;81.08;99474.97;5013589;28;20172;-74
2021/12/28 02:00:57;;;;;;;32.83;18.67;;;;;;;1.47;80.12;99469.19;5013680;28;20124;-74
2021/12/28 02:03:24;;;;;;;32.45;18.45;;;;;;;1.64;79.92;99459.84;5013611;28;20048;-74
2021/12/28 02:05:50;;;;;;;34.20;18.48;;;;;;;1.77;79.62;99460.88;5013297;28;20041;-75
2021/12/28 02:08:16;;;;;;;33.20;18.98;;;;;;;1.93;79.03;99456.72;5013477;28;20396;-74
2021/12/28 02:10:44;;;;;;;33.25;20.40;;;;;;;2.03;78.91;99453.38;5013415;28;20111;-75
2021/12/28 02:13:09;;;;;;;30.13;18.13;;;;;;;2.14;78.62;99450.88;5013565;28;20392;-75
2021/12/28 02:15:36;;;;;;;34.33;19.10;;;;;;;2.22;78.06;99448.38;5011947;28;20034;-74
2021/12/28 02:18:09;;;;;;;30.35;17.95;;;;;;;2.28;77.83;99453.63;5013216;28;20076;-75
2021/12/28 02:20:34;;;;;;;31.67;18.77;;;;;;;2.34;77.47;99445.88;5012929;28;20077;-75
2021/12/28 02:23:00;;;;;;;33.28;20.23;;;;;;;2.37;77.45;99444.19;5012089;28;20550;-75
2021/12/28 02:25:25;;;;;;;28.80;18.17;;;;;;;2.39;77.27;99441.59;5012816;28;20038;-74
2021/12/28 02:27:51;;;;;;;33.55;19.52;;;;;;;2.38;76.72;99443.34;5011867;28;20085;-75
2021/12/28 02:30:20;;;;;;;33.33;19.92;;;;;;;2.42;76.80;99444.22;5012712;28;20481;-74
2021/12/28 02:32:47;;;;;;;31.45;18.65;;;;;;;2.51;76.75;99440.81;5012849;28;20042;-74
2021/12/28 02:35:18;;;;;;;32.00;18.42;;;;;;;2.53;76.73;99432.16;5012784;28;20026;-74
2021/12/28 02:37:44;;;;;;;31.95;18.23;;;;;;;2.54;76.67;99426.13;5012916;28;20107;-75
2021/12/28 02:40:13;;;;;;;35.80;19.00;;;;;;;2.49;76.70;99422.59;5012835;28;20112;-74
2021/12/28 02:42:40;;;;;;;33.05;19.33;;;;;;;2.42;76.53;99426.00;5012701;28;20475;-75
2021/12/28 02:45:12;;;;;;;29.80;17.13;;;;;;;2.43;77.01;99419.91;5012502;28;20111;-73
2021/12/28 02:47:39;;;;;;;31.40;17.13;;;;;;;2.44;76.92;99424.28;5012854;28;20382;-74
2021/12/28 02:50:07;;;;;;;28.88;17.10;;;;;;;2.47;76.90;99413.88;5012651;28;20046;-75
2021/12/28 02:52:37;;;;;;;30.30;17.48;;;;;;;2.52;77.08;99424.34;5012645;28;20042;-74
2021/12/28 02:55:05;;;;;;;31.60;18.02;;;;;;;2.58;77.01;99416.59;5012432;28;20038;-75
2021/12/28 02:57:30;;;;;;;30.88;18.80;;;;;;;2.55;76.34;99414.81;5012533;28;20038;-75
2021/12/28 02:59:56;;;;;;;31.88;19.10;;;;;;;2.58;76.63;99416.59;5012493;28;20491;-74
2021/12/28 03:02:21;;;;;;;31.35;18.80;;;;;;;2.63;76.54;99415.75;5012595;28;20452;-75
2021/12/28 03:04:46;;;;;;;31.73;17.85;;;;;;;2.71;76.42;99412.34;5012193;28;20044;-75
2021/12/28 03:07:11;;;;;;;30.92;17.02;;;;;;;2.72;76.00;99407.13;5012273;28;20040;-74
2021/12/28 03:09:37;;;;;;;28.02;17.27;;;;;;;2.73;76.37;99400.22;5012295;28;20051;-75
2021/12/28 03:12:04;;;;;;;29.00;18.15;;;;;;;2.81;76.58;99399.41;5013250;28;20042;-74
2021/12/28 03:14:29;;;;;;;30.20;18.83;;;;;;;2.78;76.47;99399.38;5017336;28;20061;-74
2021/12/28 03:16:54;;;;;;;30.20;18.38;;;;;;;2.74;75.79;99401.94;5016230;28;20028;-74
2021/12/28 03:19:20;;;;;;;28.73;17.88;;;;;;;2.75;76.31;99395.84;5012233;28;20477;-74
2021/12/28 03:21:46;;;;;;;29.90;18.38;;;;;;;2.86;76.26;99378.59;5012223;28;20029;-75
2021/12/28 03:24:12;;;;;;;30.33;18.92;;;;;;;2.87;75.36;99377.72;5012130;28;20689;-75
2021/12/28 03:26:38;;;;;;;31.70;19.27;;;;;;;2.90;75.92;99377.72;5011794;28;20084;-74
2021/12/28 03:29:04;;;;;;;29.70;17.38;;;;;;;2.94;75.60;99374.28;5012056;28;20061;-75
2021/12/28 03:31:30;;;;;;;30.35;17.67;;;;;;;2.89;75.92;99381.19;5012089;28;20052;-75
2021/12/28 03:33:55;;;;;;;30.80;18.02;;;;;;;2.96;76.08;99382.09;5012043;28;20034;-75
2021/12/28 03:36:23;;;;;;;38.03;20.63;;;;;;;2.91;75.31;99378.59;5010396;28;20026;-74
2021/12/28 03:38:48;;;;;;;33.38;19.55;;;;;;;2.88;75.65;99379.44;5011779;28;20463;-75
2021/12/28 03:41:17;;;;;;;30.40;18.80;;;;;;;2.91;75.97;99375.97;5010614;28;20073;-75
2021/12/28 03:43:45;;;;;;;32.58;19.73;;;;;;;2.86;75.84;99368.16;5011037;28;20056;-74
2021/12/28 03:46:11;;;;;;;31.95;18.35;;;;;;;2.91;75.92;99362.94;5011567;28;20074;-75
2021/12/28 03:48:37;;;;;;;32.70;18.05;;;;;;;2.98;75.89;99355.19;5010367;28;20042;-74
2021/12/28 03:51:03;;;;;;;31.55;19.58;;;;;;;3.01;75.62;99344.78;5011750;28;20042;-74
2021/12/28 03:53:29;;;;;;;34.25;19.17;;;;;;;2.97;74.99;99343.03;5011738;28;20064;-74
2021/12/28 03:55:54;;;;;;;33.17;18.95;;;;;;;2.92;75.18;99338.66;5011443;28;20034;-75
2021/12/28 03:58:19;;;;;;;30.35;19.30;;;;;;;2.94;75.47;99324.78;5011531;28;20575;-74
2021/12/28 04:00:46;;;;;;;31.52;18.95;;;;;;;2.95;75.64;99316.06;5011646;28;20412;-74
2021/12/28 04:03:12;;;;;;;32.78;19.17;;;;;;;2.87;75.39;99319.50;5011612;28;20052;-75
2021/12/28 04:05:39;;;;;;;32.03;20.17;;;;;;;2.89;74.99;99333.44;5011198;28;20042;-74
2021/12/28 04:08:05;;;;;;;33.70;19.92;;;;;;;2.91;75.39;99321.25;5011525;28;20040;-75
2021/12/28 04:10:37;;;;;;;36.60;21.85;;;;;;;2.80;75.46;99344.66;5007588;28;20108;-75
2021/12/28 04:13:03;;;;;;;36.97;21.67;;;;;;;2.80;75.51;99342.94;5008247;28;20091;-75
2021/12/28 04:15:28;;;;;;;34.08;20.00;;;;;;;2.76;75.27;99337.69;5010978;28;20041;-75
2021/12/28 04:17:53;;;;;;;37.30;22.40;;;;;;;2.77;75.66;99335.06;5011290;28;20485;-74
2021/12/28 04:20:20;;;;;;;34.83;21.25;;;;;;;2.79;75.85;99345.53;5011407;28;20044;-74
2021/12/28 04:22:46;;;;;;;38.88;21.88;;;;;;;2.80;75.51;99337.72;5011394;28;20100;-75
2021/12/28 04:25:14;;;;;;;38.50;23.38;;;;;;;2.74;75.01;99329.84;5011156;28;20042;-74
2021/12/28 04:27:40;;;;;;;42.00;24.65;;;;;;;2.74;75.77;99327.25;5011268;28;20136;-74
2021/12/28 04:30:08;;;;;;;44.05;25.60;;;;;;;2.83;75.76;99318.63;5011295;28;20536;-74
2021/12/28 04:32:34;;;;;;;40.70;24.55;;;;;;;2.86;75.36;99318.66;5011225;28;20030;-75
2021/12/28 04:34:59;;;;;;;41.95;24.90;;;;;;;2.85;74.99;99316.88;5011061;28;20037;-75
2021/12/28 04:37:25;;;;;;;43.70;25.40;;;;;;;2.83;75.18;99314.28;5011262;28;20041;-75
2021/12/28 04:39:50;;;;;;;47.90;26.27;;;;;;;2.85;74.89;99329.91;5011134;28;20061;-75
2021/12/28 04:42:16;;;;;;;41.83;25.92;;;;;;;2.80;74.91;99339.44;5011118;28;20064;-75
2021/12/28 04:44:41;;;;;;;46.30;24.70;;;;;;;2.89;75.02;99333.44;5010882;28;20500;-75
2021/12/28 04:47:06;;;;;;;44.50;26.02;;;;;;;2.92;75.05;99338.66;5011118;28;20074;-75
2021/12/28 04:49:32;;;;;;;46.22;26.27;;;;;;;2.92;74.73;99354.28;5011002;28;20038;-74
2021/12/28 04:51:59;;;;;;;45.10;26.23;;;;;;;2.94;74.42;99368.22;5010942;28;20052;-74
2021/12/28 04:54:24;;;;;;;45.63;26.30;;;;;;;3.03;75.10;99361.28;5012332;28;20046;-74
2021/12/28 04:56:50;;;;;;;47.22;26.08;;;;;;;3.14;74.67;99361.34;5014798;28;20038;-75
2021/12/28 04:59:17;;;;;;;46.53;26.27;;;;;;;3.23;74.47;99350.13;5014075;28;20489;-75
2021/12/28 05:01:43;;;;;;;45.00;25.70;;;;;;;3.31;73.91;99352.75;5014828;28;20412;-75
2021/12/28 05:04:09;;;;;;;45.58;26.45;;;;;;;3.22;74.03;99353.56;5014659;28;20046;-75
2021/12/28 05:06:35;;;;;;;48.30;27.02;;;;;;;3.22;73.54;99343.13;5014453;28;20092;-75
2021/12/28 05:09:09;;;;;;;44.83;26.40;;;;;;;3.26;73.53;99334.47;5014759;28;20451;-75
2021/12/28 05:11:35;;;;;;;48.35;27.65;;;;;;;3.31;74.50;99347.53;5014612;28;20030;-74
2021/12/28 05:14:02;;;;;;;44.88;26.25;;;;;;;3.36;74.10;99340.59;5014508;28;20081;-75
2021/12/28 05:16:30;;;;;;;47.13;28.58;;;;;;;3.37;74.01;99330.16;5014333;28;20041;-75
2021/12/28 05:18:56;;;;;;;47.55;27.88;;;;;;;3.36;74.16;99332.78;5014288;28;20073;-75
2021/12/28 05:21:22;;;;;;;44.33;27.50;;;;;;;3.25;74.50;99335.34;5014519;28;20703;-75
2021/12/28 05:23:47;;;;;;;44.63;25.38;;;;;;;3.15;75.22;99328.34;5014216;28;20073;-75
2021/12/28 05:26:12;;;;;;;47.22;26.92;;;;;;;3.18;75.67;99328.34;5013805;28;20037;-74
2021/12/28 05:28:38;;;;;;;40.78;25.83;;;;;;;3.21;75.46;99334.44;5014017;28;20045;-75
2021/12/28 05:31:03;;;;;;;45.67;27.45;;;;;;;3.17;76.06;99334.41;5014318;28;20038;-75
2021/12/28 05:33:28;;;;;;;44.55;27.58;;;;;;;3.14;76.65;99330.06;5014130;28;20043;-75
2021/12/28 05:35:54;;;;;;;46.90;27.15;;;;;;;3.05;76.53;99323.06;5013938;28;20095;-75
2021/12/28 05:38:19;;;;;;;48.53;27.45;;;;;;;2.91;77.17;99329.97;5013967;28;20033;-75
2021/12/28 05:40:45;;;;;;;48.65;28.77;;;;;;;2.92;77.08;99318.66;5013950;28;20077;-74
2021/12/28 05:43:10;;;;;;;44.35;26.88;;;;;;;3.00;77.25;99322.19;5013872;28;20038;-75
2021/12/28 05:45:35;;;;;;;45.35;25.55;;;;;;;3.06;76.75;99317.00;5013638;28;20038;-74
2021/12/28 05:48:01;;;;;;;47.40;26.08;;;;;;;3.14;77.02;99317.03;5013884;28;20049;-74
2021/12/28 05:50:26;;;;;;;47.78;28.77;;;;;;;3.19;76.51;99307.47;5013904;28;20117;-75
2021/12/28 05:52:51;;;;;;;49.55;29.17;;;;;;;3.21;76.46;99307.50;5013713;28;20496;-75
2021/12/28 05:55:17;;;;;;;50.25;28.73;;;;;;;3.21;76.70;99304.91;5013579;28;20476;-74
2021/12/28 05:57:42;;;;;;;46.72;28.77;;;;;;;3.17;76.05;99304.03;5013767;28;20034;-75
2021/12/28 06:00:10;;;;;;;48.53;27.25;;;;;;;3.14;76.73;99297.91;5013645;28;20511;-75
2021/12/28 06:02:37;;;;;;;51.97;30.38;;;;;;;3.18;76.77;99299.69;5013670;28;20069;-75
2021/12/28 06:05:03;;;;;;;46.20;27.48;;;;;;;3.18;76.61;99297.06;5011687;28;20428;-75
2021/12/28 06:07:29;;;;;;;46.10;26.48;;;;;;;3.22;76.32;99289.28;5013056;28;20044;-75
2021/12/28 06:09:56;;;;;;;48.05;28.92;;;;;;;3.27;75.85;99284.06;5013675;28;20037;-75
2021/12/28 06:12:22;;;;;;;45.20;26.23;;;;;;;3.21;75.98;99291.88;5013481;28;20038;-74
2021/12/28 06:14:47;;;;;;;44.30;25.58;;;;;;;3.17;76.18;99287.50;5012810;28;20033;-75
2021/12/28 06:17:13;;;;;;;48.95;29.00;;;;;;;3.13;76.04;99286.63;5012038;28;20420;-75
2021/12/28 06:19:38;;;;;;;47.92;28.10;;;;;;;3.07;75.92;99289.22;5013253;28;20036;-75
2021/12/28 06:22:03;;;;;;;47.60;28.83;;;;;;;3.08;76.44;99288.34;5013147;28;20120;-74
2021/12/28 06:24:29;;;;;;;45.42;26.75;;;;;;;3.13;76.04;99283.16;5012898;28;20125;-74
2021/12/28 06:26:54;;;;;;;48.10;25.80;;;;;;;3.12;75.84;99284.88;5013177;28;20034;-74
2021/12/28 06:29:20;;;;;;;40.97;25.80;;;;;;;3.13;76.08;99284.00;5013158;28;20100;-74
2021/12/28 06:31:45;;;;;;;41.00;25.70;;;;;;;3.04;76.32;99291.81;5013116;28;20034;-75
2021/12/28 06:34:11;;;;;;;41.75;25.85;;;;;;;3.02;76.14;99294.41;5013023;28;20473;-75
2021/12/28 06:36:37;;;;;;;44.67;26.35;;;;;;;3.10;76.11;99294.44;5011727;28;20057;-72
2021/12/28 06:39:03;;;;;;;42.42;25.15;;;;;;;3.15;75.77;99284.03;5013065;28;20127;-76
2021/12/28 06:41:28;;;;;;;40.47;23.77;;;;;;;3.14;75.86;99290.94;5011745;28;20100;-76
2021/12/28 06:43:54;;;;;;;41.45;23.33;;;;;;;3.11;75.77;99290.09;5012941;28;20092;-76
2021/12/28 06:46:19;;;;;;;47.30;26.27;;;;;;;3.14;75.67;99287.47;5011433;28;20088;-76
2021/12/28 06:48:44;;;;;;;41.65;24.50;;;;;;;3.15;75.58;99289.25;5012833;28;20038;-76
2021/12/28 06:51:11;;;;;;;40.35;23.88;;;;;;;3.18;75.60;99281.44;5011632;28;20068;-76
2021/12/28 06:53:37;;;;;;;39.63;24.55;;;;;;;3.18;75.37;99274.47;5012867;28;20038;-76
2021/12/28 06:56:05;;;;;;;40.25;23.23;;;;;;;3.15;75.75;99269.25;5012558;28;20113;-76
2021/12/28 06:58:30;;;;;;;41.20;23.38;;;;;;;3.11;76.10;99264.00;5008859;28;20046;-76
2021/12/28 07:00:56;;;;;;;40.33;24.08;;;;;;;3.09;75.58;99258.78;5012681;28;20049;-76
2021/12/28 07:03:22;;;;;;;44.42;24.67;;;;;;;3.02;75.85;99252.69;5012690;28;20042;-76
2021/12/28 07:05:47;;;;;;;46.83;25.20;;;;;;;2.88;76.09;99251.75;5012161;28;20038;-76
2021/12/28 07:08:14;;;;;;;48.58;26.38;;;;;;;2.80;76.12;99256.94;5011263;28;20119;-76
2021/12/28 07:10:40;;;;;;;42.75;23.23;;;;;;;2.80;76.06;99259.56;5012430;28;20088;-76
2021/12/28 07:13:05;;;;;;;41.15;23.27;;;;;;;2.78;76.16;99252.59;5011285;28;20069;-76
2021/12/28 07:15:31;;;;;;;42.92;22.40;;;;;;;2.77;76.75;99254.31;5012225;28;20040;-76
2021/12/28 07:17:57;;;;;;;40.40;22.90;;;;;;;2.75;76.95;99257.78;5012195;28;20050;-76
2021/12/28 07:20:22;;;;;;;44.47;26.27;;;;;;;2.80;76.42;99259.56;5012230;28;20037;-76
2021/12/28 07:22:48;;;;;;;41.45;23.67;;;;;;;2.74;76.57;99259.50;5012245;28;20061;-76
2021/12/28 07:25:13;;;;;;;43.17;23.88;;;;;;;2.82;76.38;99259.53;5011892;28;20045;-76
2021/12/28 07:27:39;;;;;;;41.88;23.83;;;;;;;2.79;76.42;99263.00;5012166;28;20064;-76
2021/12/28 07:30:07;;;;;;;38.20;22.35;;;;;;;2.86;76.84;99256.09;5012220;28;20121;-76
2021/12/28 07:32:33;;;;;;;41.45;22.45;;;;;;;2.89;76.69;99245.69;5011789;28;20084;-76
2021/12/28 07:34:58;;;;;;;40.70;22.73;;;;;;;2.96;76.55;99241.34;5011900;28;20029;-76
2021/12/28 07:37:24;;;;;;;39.58;21.88;;;;;;;2.98;76.24;99240.50;5011987;28;20040;-76
2021/12/28 07:39:50;;;;;;;40.30;23.25;;;;;;;3.08;76.04;99237.06;5010656;28;20042;-76
2021/12/28 07:42:16;;;;;;;39.03;22.08;;;;;;;3.17;76.07;99241.47;5010743;28;20037;-76
2021/12/28 07:44:42;;;;;;;37.95;21.45;;;;;;;3.16;75.99;99239.69;5011651;28;20084;-76
2021/12/28 07:47:08;;;;;;;40.78;24.02;;;;;;;3.15;75.57;99231.88;5011927;28;20491;-76
2021/12/28 07:49:34;;;;;;;38.50;21.65;;;;;;;3.17;75.54;99224.91;5012035;28;20408;-76
2021/12/28 07:52:00;;;;;;;34.47;21.95;;;;;;;3.22;75.76;99236.22;5011767;28;20032;-76
2021/12/28 07:54:25;;;;;;;39.40;21.45;;;;;;;3.28;75.04;99238.88;5011594;28;20037;-77
2021/12/28 07:56:50;;;;;;;35.30;20.92;;;;;;;3.26;75.24;99230.16;5011820;28;20277;-76
2021/12/28 07:59:16;;;;;;;34.67;20.02;;;;;;;3.23;75.50;99232.78;5011747;28;20084;-76
2021/12/28 08:01:41;;;;;;;34.38;20.27;;;;;;;3.29;75.30;99231.03;5011510;28;20041;-76
2021/12/28 08:04:06;;;;;;;37.47;22.40;;;;;;;3.28;75.05;99223.22;5011219;28;20053;-76
2021/12/28 08:06:32;;;;;;;37.53;20.88;;;;;;;3.28;75.01;99224.09;5011377;28;20042;-76
2021/12/28 08:08:58;;;;;;;38.97;21.88;;;;;;;3.23;75.11;99230.16;5011539;28;20054;-76
2021/12/28 08:11:23;;;;;;;39.35;21.35;;;;;;;3.17;75.24;99231.03;5011635;28;20128;-77
2021/12/28 08:13:50;;;;;;;38.50;21.13;;;;;;;3.07;75.04;99229.25;5011680;28;20042;-76
2021/12/28 08:16:15;;;;;;;35.35;20.38;;;;;;;3.04;75.64;99232.72;5011358;28;20065;-76
2021/12/28 08:18:41;;;;;;;34.47;20.42;;;;;;;3.03;75.52;99237.91;5010548;28;20061;-76
2021/12/28 08:21:06;;;;;;;35.47;20.13;;;;;;;3.17;75.81;99232.72;5010087;28;20038;-76
2021/12/28 08:23:31;;;;;;;35.15;20.48;;;;;;;3.28;75.04;99228.44;5011477;28;20124;-76
2021/12/28 08:25:57;;;;;;;35.42;20.40;;;;;;;3.32;75.15;99213.66;5011199;28;20053;-76
2021/12/28 08:28:22;;;;;;;32.35;19.10;;;;;;;3.37;74.92;99207.59;5011074;28;20060;-76
2021/12/28 08:30:47;;;;;;;34.75;20.05;;;;;;;3.38;74.63;99214.56;5015397;28;20037;-76
2021/12/28 08:33:13;;;;;;;30.70;18.80;;;;;;;3.45;74.76;99215.41;5015405;28;20107;-76
2021/12/28 08:35:40;;;;;;;34.28;19.10;;;;;;;3.51;74.73;99216.31;5015151;28;20041;-76
2021/12/28 08:38:10;;;;;;;30.27;17.73;;;;;;;3.56;74.25;99223.25;5015430;28;20038;-76
2021/12/28 08:40:38;;;;;;;31.77;18.02;;;;;;;3.55;74.20;99218.91;5015304;28;20054;-76
2021/12/28 08:43:04;;;;;;;31.05;18.08;;;;;;;3.53;74.50;99221.50;5015118;28;20037;-76
2021/12/28 08:45:30;;;;;;;30.27;17.25;;;;;;;3.53;74.13;99218.91;5014914;28;20038;-76
2021/12/28 08:47:55;;;;;;;29.83;17.23;;;;;;;3.53;74.41;99233.69;5015151;28;20037;-76
2021/12/28 08:50:21;;;;;;;28.80;17.73;;;;;;;3.56;74.48;99234.56;5015016;28;20408;-76
2021/12/28 08:52:47;;;;;;;29.17;17.77;;;;;;;3.58;74.13;99226.75;5015031;28;20228;-76
2021/12/28 08:55:13;;;;;;;31.45;18.48;;;;;;;3.52;74.20;99232.81;5014726;28;20034;-76
2021/12/28 08:57:39;;;;;;;29.55;18.25;;;;;;;3.61;74.28;99225.00;5014817;28;20081;-76
2021/12/28 09:00:12;;;;;;;31.25;17.98;;;;;;;3.69;73.93;99219.78;5014887;28;20111;-77
2021/12/28 09:02:37;;;;;;;30.10;17.50;;;;;;;3.77;74.25;99218.06;5015264;28;20455;-76
2021/12/28 09:05:03;;;;;;;29.95;18.08;;;;;;;3.79;74.12;99205.88;5014570;28;20034;-76
2021/12/28 09:07:28;;;;;;;29.85;17.75;;;;;;;3.86;73.81;99209.38;5013611;28;20026;-77
2021/12/28 09:09:53;;;;;;;26.83;16.20;;;;;;;3.98;73.91;99206.72;5014904;28;20072;-76
2021/12/28 09:12:19;;;;;;;30.35;18.85;;;;;;;4.05;72.99;99221.53;5014910;28;20041;-76
2021/12/28 09:14:44;;;;;;;32.38;18.05;;;;;;;3.95;72.76;99218.03;5014569;28;20048;-76
2021/12/28 09:17:10;;;;;;;29.10;17.70;;;;;;;4.02;72.81;99212.84;5018032;28;20516;-76
2021/12/28 09:19:35;;;;;;;29.23;17.23;;;;;;;4.05;72.00;99202.38;5020108;28;20109;-76
2021/12/28 09:22:02;;;;;;;29.90;17.85;;;;;;;3.94;71.70;99203.25;5016592;28;20385;-76
2021/12/28 09:24:27;;;;;;;30.70;18.38;;;;;;;3.96;72.09;99198.06;5013863;28;20452;-76
2021/12/28 09:26:53;;;;;;;31.45;18.52;;;;;;;3.95;72.23;99206.75;5014424;28;20076;-76
2021/12/28 09:29:18;;;;;;;32.67;17.70;;;;;;;3.96;71.57;99205.88;5014355;28;20069;-76
2021/12/28 09:31:44;;;;;;;29.50;17.73;;;;;;;4.02;71.80;99205.00;5014748;28;20030;-76
2021/12/28 09:34:09;;;;;;;29.27;17.40;;;;;;;4.08;71.39;99194.56;5014290;28;20558;-76
2021/12/28 09:36:35;;;;;;;28.75;17.55;;;;;;;4.18;71.21;99191.91;5014184;28;20034;-76
2021/12/28 09:39:01;;;;;;;27.80;16.80;;;;;;;4.27;71.27;99185.81;5014134;28;20042;-76
2021/12/28 09:41:26;;;;;;;30.00;18.48;;;;;;;4.32;70.63;99191.00;5013056;28;20081;-76
2021/12/28 09:43:52;;;;;;;28.27;17.60;;;;;;;4.41;70.80;99190.16;5012897;28;20467;-76
2021/12/28 09:46:17;;;;;;;27.30;16.30;;;;;;;4.47;70.57;99190.13;5013804;28;20037;-76
2021/12/28 09:48:42;;;;;;;30.33;17.48;;;;;;;4.52;70.56;99193.59;5013949;28;20052;-76
2021/12/28 09:51:09;;;;;;;26.38;17.17;;;;;;;4.57;70.47;99189.22;5013979;28;20042;-76
2021/12/28 09:53:35;;;;;;;30.23;17.50;;;;;;;4.59;70.56;99184.84;5013974;28;20045;-76
2021/12/28 09:56:02;;;;;;;27.65;17.70;;;;;;;4.57;70.54;99184.84;5013649;28;20109;-76
2021/12/28 09:58:27;;;;;;;25.55;16.75;;;;;;;4.58;70.32;99188.31;5013434;28;20022;-76
2021/12/28 10:00:53;;;;;;;24.55;17.33;;;;;;;4.57;70.13;99184.00;5013773;28;20038;-76
2021/12/28 10:03:18;;;;;;;26.95;15.82;;;;;;;4.55;70.26;99183.97;5012392;28;20049;-76
2021/12/28 10:05:44;;;;;;;26.52;16.83;;;;;;;4.64;70.19;99170.03;5013564;28;20038;-76
2021/12/28 10:08:09;;;;;;;27.45;17.45;;;;;;;4.66;69.87;99170.00;5013583;28;20129;-76
2021/12/28 10:10:38;;;;;;;27.02;16.02;;;;;;;4.61;69.48;99167.41;5013518;28;20389;-76
2021/12/28 10:13:07;;;;;;;28.35;16.55;;;;;;;4.64;69.47;99167.41;5013542;28;20468;-76
2021/12/28 10:15:38;;;;;;;26.35;16.80;;;;;;;4.64;69.68;99161.31;5013396;28;20595;-76
2021/12/28 10:18:07;;;;;;;24.95;15.90;;;;;;;4.66;69.18;99164.78;5013417;28;20100;-76
2021/12/28 10:20:42;;;;;;;23.90;14.63;;;;;;;4.72;69.18;99165.63;5009584;28;20424;-76
2021/12/28 10:23:13;;;;;;;27.45;16.23;;;;;;;4.81;69.08;99156.88;5010530;28;20056;-76
2021/12/28 10:26:05;;;;;;;25.63;15.73;;;;;;;4.91;68.81;99145.50;5013147;28;20083;-76
2021/12/28 10:28:34;;;;;;;28.63;16.87;;;;;;;4.88;68.76;99140.28;5009852;28;20045;-77
2021/12/28 10:31:06;;;;;;;25.27;15.43;;;;;;;4.91;68.66;99140.28;5013217;28;20342;-76
2021/12/28 10:33:34;;;;;;;24.90;15.02;;;;;;;5.02;68.83;99142.81;5013195;28;20034;-77
2021/12/28 10:36:02;;;;;;;25.20;16.55;;;;;;;5.05;67.43;99132.34;5013035;28;20040;-76
2021/12/28 10:38:32;;;;;;;22.20;14.68;;;;;;;5.02;68.11;99129.75;5013094;28;20488;-77
2021/12/28 10:41:11;;;;;;;22.67;14.82;;;;;;;5.12;67.77;99130.56;5013122;28;20042;-76
2021/12/28 10:43:38;;;;;;;24.40;15.35;;;;;;;5.30;68.39;99124.34;5020262;28;20034;-77
2021/12/28 10:46:08;;;;;;;23.33;15.05;;;;;;;5.44;67.83;99123.34;5012562;28;20087;-76
2021/12/28 10:48:40;;;;;;;24.23;14.35;;;;;;;5.54;67.19;99118.91;5012974;28;20037;-76
2021/12/28 10:51:09;;;;;;;;;;;;;;;5.66;66.96;99110.97;5013544;28;20048;-77
2021/12/28 10:56:27;;;;;;;23.42;14.23;;;;;;;5.78;67.11;99099.50;5018316;28;20096;-77
2021/12/28 10:58:52;;;;;;;21.48;14.88;;;;;;;5.58;67.21;99101.41;5012742;28;20503;-76
2021/12/28 11:01:21;;;;;;;25.48;15.95;;;;;;;5.54;67.85;99100.59;5011593;28;20037;-77
2021/12/28 11:03:52;;;;;;;25.02;15.30;;;;;;;5.68;67.88;99100.44;5012793;28;20151;-76
2021/12/28 11:06:29;;;;;;;25.13;14.40;;;;;;;5.75;66.92;99104.75;5011327;28;20530;-77
2021/12/28 11:09:02;;;;;;;23.60;14.60;;;;;;;5.83;66.78;99107.31;5012644;28;20114;-77
2021/12/28 11:11:28;;;;;;;22.55;14.15;;;;;;;5.82;66.46;99106.44;5009112;28;20135;-77
2021/12/28 11:13:56;;;;;;;26.30;15.15;;;;;;;5.92;66.97;99104.56;5012569;28;20056;-76
2021/12/28 11:16:26;;;;;;;26.50;15.00;;;;;;;6.03;66.50;99102.78;5023849;28;20042;-77
2021/12/28 11:18:56;;;;;;;24.05;15.52;;;;;;;6.11;66.21;99095.69;5008918;28;20041;-77
2021/12/28 11:21:24;;;;;;;24.35;13.45;;;;;;;6.18;65.45;99090.38;5009169;28;20041;-77
2021/12/28 11:23:55;;;;;;;23.65;13.90;;;;;;;6.13;66.12;99085.19;5012776;28;20124;-77
2021/12/28 11:26:24;;;;;;;22.05;13.35;;;;;;;6.15;66.12;99076.41;5012209;28;20073;-77
2021/12/28 11:28:56;;;;;;;21.88;13.85;;;;;;;6.15;66.17;99070.31;5011442;28;20045;-77